sensor_id;sensor_type;location;lat;lon;timestamp;P1;durP1;ratioP1;P2;durP2;ratioP2
23519;SDS011;11936;50.820;4.336;2024-01-11T00:00:05;28.83;;;14.80;;
23519;SDS011;11936;50.820;4.336;2024-01-11T00:02:31;27.80;;;14.27;;
23519;SDS011;11936;50.820;4.336;2024-01-11T00:04:57;27.95;;;13.48;;
23519;SDS011;11936;50.820;4.336;2024-01-11T00:07:23;30.90;;;14.68;;
23519;SDS011;11936;50.820;4.336;2024-01-11T00:09:49;30.13;;;14.07;;
23519;SDS011;11936;50.820;4.336;2024-01-11T00:12:14;30.10;;;13.98;;
23519;SDS011;11936;50.820;4.336;2024-01-11T00:14:40;25.83;;;13.60;;
23519;SDS011;11936;50.820;4.336;2024-01-11T00:17:06;32.53;;;14.57;;
23519;SDS011;11936;50.820;4.336;2024-01-11T00:19:32;32.83;;;15.68;;
23519;SDS011;11936;50.820;4.336;2024-01-11T00:21:57;27.00;;;14.65;;
23519;SDS011;11936;50.820;4.336;2024-01-11T00:24:23;26.52;;;14.50;;
23519;SDS011;11936;50.820;4.336;2024-01-11T00:26:49;30.58;;;14.23;;
23519;SDS011;11936;50.820;4.336;2024-01-11T00:29:14;30.13;;;13.68;;
23519;SDS011;11936;50.820;4.336;2024-01-11T00:31:40;27.77;;;14.13;;
23519;SDS011;11936;50.820;4.336;2024-01-11T00:34:06;30.52;;;14.38;;
23519;SDS011;11936;50.820;4.336;2024-01-11T00:36:31;27.83;;;14.93;;
23519;SDS011;11936;50.820;4.336;2024-01-11T00:39:01;28.63;;;13.55;;
23519;SDS011;11936;50.820;4.336;2024-01-11T00:41:27;31.17;;;15.48;;
23519;SDS011;11936;50.820;4.336;2024-01-11T00:43:53;31.08;;;15.23;;
23519;SDS011;11936;50.820;4.336;2024-01-11T00:46:19;32.33;;;15.50;;
23519;SDS011;11936;50.820;4.336;2024-01-11T00:48:44;33.78;;;15.27;;
23519;SDS011;11936;50.820;4.336;2024-01-11T00:51:10;32.72;;;15.35;;
23519;SDS011;11936;50.820;4.336;2024-01-11T00:53:36;30.95;;;14.57;;
23519;SDS011;11936;50.820;4.336;2024-01-11T00:56:02;32.42;;;15.63;;
23519;SDS011;11936;50.820;4.336;2024-01-11T00:58:27;31.85;;;15.30;;
23519;SDS011;11936;50.820;4.336;2024-01-11T01:00:53;28.65;;;14.65;;
23519;SDS011;11936;50.820;4.336;2024-01-11T01:03:22;33.85;;;15.57;;
23519;SDS011;11936;50.820;4.336;2024-01-11T01:05:48;30.02;;;14.32;;
23519;SDS011;11936;50.820;4.336;2024-01-11T01:08:14;34.35;;;14.20;;
23519;SDS011;11936;50.820;4.336;2024-01-11T01:10:39;32.30;;;15.18;;
23519;SDS011;11936;50.820;4.336;2024-01-11T01:13:05;43.13;;;15.27;;
23519;SDS011;11936;50.820;4.336;2024-01-11T01:15:31;33.50;;;15.05;;
23519;SDS011;11936;50.820;4.336;2024-01-11T01:17:57;33.00;;;15.40;;
23519;SDS011;11936;50.820;4.336;2024-01-11T01:20:22;26.25;;;13.80;;
23519;SDS011;11936;50.820;4.336;2024-01-11T01:22:49;28.83;;;13.60;;
23519;SDS011;11936;50.820;4.336;2024-01-11T01:25:14;33.70;;;15.00;;
23519;SDS011;11936;50.820;4.336;2024-01-11T01:27:40;33.65;;;15.18;;
23519;SDS011;11936;50.820;4.336;2024-01-11T01:30:06;37.80;;;14.98;;
23519;SDS011;11936;50.820;4.336;2024-01-11T01:32:33;30.55;;;14.75;;
23519;SDS011;11936;50.820;4.336;2024-01-11T01:34:59;27.40;;;13.82;;
23519;SDS011;11936;50.820;4.336;2024-01-11T01:37:25;27.17;;;14.43;;
23519;SDS011;11936;50.820;4.336;2024-01-11T01:39:51;33.03;;;15.20;;
23519;SDS011;11936;50.820;4.336;2024-01-11T01:42:16;39.28;;;15.80;;
23519;SDS011;11936;50.820;4.336;2024-01-11T01:44:42;29.67;;;14.85;;
23519;SDS011;11936;50.820;4.336;2024-01-11T01:47:08;33.58;;;15.75;;
23519;SDS011;11936;50.820;4.336;2024-01-11T01:49:36;32.90;;;15.45;;
23519;SDS011;11936;50.820;4.336;2024-01-11T01:52:04;27.55;;;14.80;;
23519;SDS011;11936;50.820;4.336;2024-01-11T01:54:30;31.13;;;14.73;;
23519;SDS011;11936;50.820;4.336;2024-01-11T01:56:57;32.63;;;16.33;;
23519;SDS011;11936;50.820;4.336;2024-01-11T01:59:24;36.15;;;15.95;;
23519;SDS011;11936;50.820;4.336;2024-01-11T02:01:51;34.88;;;16.08;;
23519;SDS011;11936;50.820;4.336;2024-01-11T02:06:46;25.63;;;13.85;;
23519;SDS011;11936;50.820;4.336;2024-01-11T02:09:13;33.63;;;15.30;;
23519;SDS011;11936;50.820;4.336;2024-01-11T02:11:41;30.30;;;14.98;;
23519;SDS011;11936;50.820;4.336;2024-01-11T02:14:07;29.25;;;15.38;;
23519;SDS011;11936;50.820;4.336;2024-01-11T02:16:33;39.08;;;14.88;;
23519;SDS011;11936;50.820;4.336;2024-01-11T02:18:58;35.25;;;15.55;;
23519;SDS011;11936;50.820;4.336;2024-01-11T02:21:24;34.15;;;16.83;;
23519;SDS011;11936;50.820;4.336;2024-01-11T02:26:30;25.17;;;13.77;;
23519;SDS011;11936;50.820;4.336;2024-01-11T02:28:56;29.50;;;15.18;;
23519;SDS011;11936;50.820;4.336;2024-01-11T02:31:21;26.25;;;13.18;;
23519;SDS011;11936;50.820;4.336;2024-01-11T02:33:47;29.05;;;14.27;;
23519;SDS011;11936;50.820;4.336;2024-01-11T02:36:14;29.25;;;14.80;;
23519;SDS011;11936;50.820;4.336;2024-01-11T02:38:40;28.52;;;15.18;;
23519;SDS011;11936;50.820;4.336;2024-01-11T02:41:07;30.33;;;15.10;;
23519;SDS011;11936;50.820;4.336;2024-01-11T02:43:33;34.03;;;15.50;;
23519;SDS011;11936;50.820;4.336;2024-01-11T02:46:01;23.42;;;10.95;;
23519;SDS011;11936;50.820;4.336;2024-01-11T02:48:28;29.63;;;14.48;;
23519;SDS011;11936;50.820;4.336;2024-01-11T02:50:54;31.88;;;14.45;;
23519;SDS011;11936;50.820;4.336;2024-01-11T02:53:20;30.08;;;14.43;;
23519;SDS011;11936;50.820;4.336;2024-01-11T02:55:46;30.88;;;14.88;;
23519;SDS011;11936;50.820;4.336;2024-01-11T02:58:12;31.27;;;15.23;;
23519;SDS011;11936;50.820;4.336;2024-01-11T03:00:37;29.63;;;16.02;;
23519;SDS011;11936;50.820;4.336;2024-01-11T03:03:03;29.83;;;14.38;;
23519;SDS011;11936;50.820;4.336;2024-01-11T03:05:29;28.48;;;13.63;;
23519;SDS011;11936;50.820;4.336;2024-01-11T03:07:55;29.25;;;14.02;;
23519;SDS011;11936;50.820;4.336;2024-01-11T03:10:20;31.08;;;14.95;;
23519;SDS011;11936;50.820;4.336;2024-01-11T03:12:46;31.88;;;15.15;;
23519;SDS011;11936;50.820;4.336;2024-01-11T03:15:14;35.33;;;15.77;;
23519;SDS011;11936;50.820;4.336;2024-01-11T03:17:40;29.67;;;15.13;;
23519;SDS011;11936;50.820;4.336;2024-01-11T03:20:06;28.83;;;15.10;;
23519;SDS011;11936;50.820;4.336;2024-01-11T03:22:32;36.05;;;14.68;;
23519;SDS011;11936;50.820;4.336;2024-01-11T03:24:58;29.02;;;14.95;;
23519;SDS011;11936;50.820;4.336;2024-01-11T03:27:24;28.48;;;13.80;;
23519;SDS011;11936;50.820;4.336;2024-01-11T03:29:49;26.35;;;13.93;;
23519;SDS011;11936;50.820;4.336;2024-01-11T03:32:15;29.77;;;15.07;;
23519;SDS011;11936;50.820;4.336;2024-01-11T03:34:41;29.27;;;14.27;;
23519;SDS011;11936;50.820;4.336;2024-01-11T03:37:07;31.73;;;14.95;;
23519;SDS011;11936;50.820;4.336;2024-01-11T03:39:33;33.35;;;16.08;;
23519;SDS011;11936;50.820;4.336;2024-01-11T03:41:59;30.45;;;14.73;;
23519;SDS011;11936;50.820;4.336;2024-01-11T03:44:25;27.88;;;14.23;;
23519;SDS011;11936;50.820;4.336;2024-01-11T03:46:51;26.58;;;14.15;;
23519;SDS011;11936;50.820;4.336;2024-01-11T03:49:16;31.65;;;15.52;;
23519;SDS011;11936;50.820;4.336;2024-01-11T03:51:42;25.92;;;14.95;;
23519;SDS011;11936;50.820;4.336;2024-01-11T03:54:08;26.23;;;14.27;;
23519;SDS011;11936;50.820;4.336;2024-01-11T03:56:37;26.23;;;13.95;;
23519;SDS011;11936;50.820;4.336;2024-01-11T03:59:04;31.58;;;15.02;;
23519;SDS011;11936;50.820;4.336;2024-01-11T04:01:31;32.63;;;15.40;;
23519;SDS011;11936;50.820;4.336;2024-01-11T04:03:57;26.90;;;14.23;;
23519;SDS011;11936;50.820;4.336;2024-01-11T04:06:22;29.90;;;15.18;;
23519;SDS011;11936;50.820;4.336;2024-01-11T04:08:51;29.13;;;14.60;;
23519;SDS011;11936;50.820;4.336;2024-01-11T04:11:17;26.98;;;14.30;;
23519;SDS011;11936;50.820;4.336;2024-01-11T04:13:43;30.35;;;15.90;;
23519;SDS011;11936;50.820;4.336;2024-01-11T04:16:09;32.05;;;14.63;;
23519;SDS011;11936;50.820;4.336;2024-01-11T04:18:34;28.23;;;14.50;;
23519;SDS011;11936;50.820;4.336;2024-01-11T04:21:00;29.25;;;14.73;;
23519;SDS011;11936;50.820;4.336;2024-01-11T04:23:26;30.15;;;15.18;;
23519;SDS011;11936;50.820;4.336;2024-01-11T04:25:51;32.63;;;15.90;;
23519;SDS011;11936;50.820;4.336;2024-01-11T04:28:17;31.13;;;15.40;;
23519;SDS011;11936;50.820;4.336;2024-01-11T04:30:43;35.22;;;15.05;;
23519;SDS011;11936;50.820;4.336;2024-01-11T04:33:09;32.88;;;15.15;;
23519;SDS011;11936;50.820;4.336;2024-01-11T04:35:35;25.40;;;14.30;;
23519;SDS011;11936;50.820;4.336;2024-01-11T04:38:01;30.38;;;14.65;;
23519;SDS011;11936;50.820;4.336;2024-01-11T04:40:27;34.42;;;15.38;;
23519;SDS011;11936;50.820;4.336;2024-01-11T04:42:52;28.02;;;15.50;;
23519;SDS011;11936;50.820;4.336;2024-01-11T04:45:18;27.58;;;14.27;;
23519;SDS011;11936;50.820;4.336;2024-01-11T04:47:44;37.92;;;16.88;;
23519;SDS011;11936;50.820;4.336;2024-01-11T04:50:09;30.67;;;15.55;;
23519;SDS011;11936;50.820;4.336;2024-01-11T04:52:35;33.17;;;17.02;;
23519;SDS011;11936;50.820;4.336;2024-01-11T04:55:01;30.10;;;14.60;;
23519;SDS011;11936;50.820;4.336;2024-01-11T04:57:27;33.75;;;15.13;;
23519;SDS011;11936;50.820;4.336;2024-01-11T04:59:53;38.25;;;16.35;;
23519;SDS011;11936;50.820;4.336;2024-01-11T05:02:21;38.65;;;16.17;;
23519;SDS011;11936;50.820;4.336;2024-01-11T05:04:47;28.33;;;15.05;;
23519;SDS011;11936;50.820;4.336;2024-01-11T05:07:13;34.35;;;16.63;;
23519;SDS011;11936;50.820;4.336;2024-01-11T05:09:39;35.30;;;15.25;;
23519;SDS011;11936;50.820;4.336;2024-01-11T05:12:04;39.20;;;16.35;;
23519;SDS011;11936;50.820;4.336;2024-01-11T05:14:31;28.75;;;14.52;;
23519;SDS011;11936;50.820;4.336;2024-01-11T05:16:56;30.20;;;15.68;;
23519;SDS011;11936;50.820;4.336;2024-01-11T05:19:22;36.00;;;16.42;;
23519;SDS011;11936;50.820;4.336;2024-01-11T05:21:48;28.90;;;14.68;;
23519;SDS011;11936;50.820;4.336;2024-01-11T05:24:13;29.70;;;16.48;;
23519;SDS011;11936;50.820;4.336;2024-01-11T05:26:39;30.23;;;15.32;;
23519;SDS011;11936;50.820;4.336;2024-01-11T05:29:04;34.97;;;16.05;;
23519;SDS011;11936;50.820;4.336;2024-01-11T05:31:30;34.30;;;16.15;;
23519;SDS011;11936;50.820;4.336;2024-01-11T05:33:57;28.75;;;15.43;;
23519;SDS011;11936;50.820;4.336;2024-01-11T05:36:23;29.65;;;14.73;;
23519;SDS011;11936;50.820;4.336;2024-01-11T05:38:49;33.33;;;15.48;;
23519;SDS011;11936;50.820;4.336;2024-01-11T05:41:14;32.50;;;16.15;;
23519;SDS011;11936;50.820;4.336;2024-01-11T05:43:40;32.83;;;16.27;;
23519;SDS011;11936;50.820;4.336;2024-01-11T05:46:06;30.88;;;15.55;;
23519;SDS011;11936;50.820;4.336;2024-01-11T05:48:32;30.75;;;15.80;;
23519;SDS011;11936;50.820;4.336;2024-01-11T05:50:58;36.17;;;16.77;;
23519;SDS011;11936;50.820;4.336;2024-01-11T05:53:25;30.58;;;15.60;;
23519;SDS011;11936;50.820;4.336;2024-01-11T05:55:52;31.98;;;15.63;;
23519;SDS011;11936;50.820;4.336;2024-01-11T05:58:18;34.00;;;16.30;;
23519;SDS011;11936;50.820;4.336;2024-01-11T06:00:44;32.50;;;15.65;;
23519;SDS011;11936;50.820;4.336;2024-01-11T06:03:13;31.90;;;15.80;;
23519;SDS011;11936;50.820;4.336;2024-01-11T06:08:05;39.53;;;15.98;;
23519;SDS011;11936;50.820;4.336;2024-01-11T06:10:30;32.00;;;15.73;;
23519;SDS011;11936;50.820;4.336;2024-01-11T06:12:56;28.13;;;15.23;;
23519;SDS011;11936;50.820;4.336;2024-01-11T06:15:22;32.60;;;15.88;;
23519;SDS011;11936;50.820;4.336;2024-01-11T06:17:47;32.30;;;15.90;;
23519;SDS011;11936;50.820;4.336;2024-01-11T06:20:13;26.95;;;15.27;;
23519;SDS011;11936;50.820;4.336;2024-01-11T06:22:39;36.13;;;16.73;;
23519;SDS011;11936;50.820;4.336;2024-01-11T06:25:04;31.17;;;16.35;;
23519;SDS011;11936;50.820;4.336;2024-01-11T06:27:31;31.45;;;15.43;;
23519;SDS011;11936;50.820;4.336;2024-01-11T06:35:14;30.38;;;16.15;;
23519;SDS011;11936;50.820;4.336;2024-01-11T06:37:53;30.48;;;14.13;;
23519;SDS011;11936;50.820;4.336;2024-01-11T06:40:19;34.35;;;15.52;;
23519;SDS011;11936;50.820;4.336;2024-01-11T06:42:44;37.97;;;18.15;;
23519;SDS011;11936;50.820;4.336;2024-01-11T06:45:10;42.63;;;18.73;;
23519;SDS011;11936;50.820;4.336;2024-01-11T06:47:36;29.88;;;16.45;;
23519;SDS011;11936;50.820;4.336;2024-01-11T06:50:01;34.85;;;15.88;;
23519;SDS011;11936;50.820;4.336;2024-01-11T06:52:28;30.45;;;15.15;;
23519;SDS011;11936;50.820;4.336;2024-01-11T06:54:54;39.05;;;16.25;;
23519;SDS011;11936;50.820;4.336;2024-01-11T06:57:19;39.03;;;17.55;;
23519;SDS011;11936;50.820;4.336;2024-01-11T06:59:45;35.95;;;16.77;;
23519;SDS011;11936;50.820;4.336;2024-01-11T07:02:12;33.07;;;16.07;;
23519;SDS011;11936;50.820;4.336;2024-01-11T07:04:38;40.33;;;18.30;;
23519;SDS011;11936;50.820;4.336;2024-01-11T07:07:08;38.63;;;17.58;;
23519;SDS011;11936;50.820;4.336;2024-01-11T07:09:34;30.85;;;16.17;;
23519;SDS011;11936;50.820;4.336;2024-01-11T07:12:00;37.72;;;17.85;;
23519;SDS011;11936;50.820;4.336;2024-01-11T07:14:26;31.63;;;16.15;;
23519;SDS011;11936;50.820;4.336;2024-01-11T07:16:54;35.58;;;18.80;;
23519;SDS011;11936;50.820;4.336;2024-01-11T07:19:19;30.90;;;16.00;;
23519;SDS011;11936;50.820;4.336;2024-01-11T07:21:45;38.63;;;18.75;;
23519;SDS011;11936;50.820;4.336;2024-01-11T07:24:10;30.20;;;16.35;;
23519;SDS011;11936;50.820;4.336;2024-01-11T07:26:36;38.10;;;18.08;;
23519;SDS011;11936;50.820;4.336;2024-01-11T07:29:02;33.97;;;17.88;;
23519;SDS011;11936;50.820;4.336;2024-01-11T07:31:27;33.83;;;17.60;;
23519;SDS011;11936;50.820;4.336;2024-01-11T07:33:54;37.03;;;18.80;;
23519;SDS011;11936;50.820;4.336;2024-01-11T07:36:20;37.53;;;18.13;;
23519;SDS011;11936;50.820;4.336;2024-01-11T07:38:45;31.70;;;18.17;;
23519;SDS011;11936;50.820;4.336;2024-01-11T07:41:11;52.60;;;24.83;;
23519;SDS011;11936;50.820;4.336;2024-01-11T07:43:37;34.72;;;18.00;;
23519;SDS011;11936;50.820;4.336;2024-01-11T07:46:02;38.88;;;17.48;;
23519;SDS011;11936;50.820;4.336;2024-01-11T07:48:30;35.35;;;17.25;;
23519;SDS011;11936;50.820;4.336;2024-01-11T07:50:56;36.72;;;17.42;;
23519;SDS011;11936;50.820;4.336;2024-01-11T07:53:22;33.53;;;17.02;;
23519;SDS011;11936;50.820;4.336;2024-01-11T07:55:48;44.80;;;18.83;;
23519;SDS011;11936;50.820;4.336;2024-01-11T07:58:14;36.58;;;18.58;;
23519;SDS011;11936;50.820;4.336;2024-01-11T08:00:40;36.15;;;17.25;;
23519;SDS011;11936;50.820;4.336;2024-01-11T08:03:05;36.30;;;17.45;;
23519;SDS011;11936;50.820;4.336;2024-01-11T08:05:31;42.97;;;18.73;;
23519;SDS011;11936;50.820;4.336;2024-01-11T08:07:57;36.83;;;18.33;;
23519;SDS011;11936;50.820;4.336;2024-01-11T08:10:26;42.60;;;18.42;;
23519;SDS011;11936;50.820;4.336;2024-01-11T08:12:52;37.67;;;18.33;;
23519;SDS011;11936;50.820;4.336;2024-01-11T08:15:18;41.53;;;19.70;;
23519;SDS011;11936;50.820;4.336;2024-01-11T08:17:46;40.00;;;17.88;;
23519;SDS011;11936;50.820;4.336;2024-01-11T08:20:13;35.83;;;18.17;;
23519;SDS011;11936;50.820;4.336;2024-01-11T08:22:40;37.83;;;18.48;;
23519;SDS011;11936;50.820;4.336;2024-01-11T08:27:34;34.65;;;18.13;;
23519;SDS011;11936;50.820;4.336;2024-01-11T08:30:02;42.00;;;18.75;;
23519;SDS011;11936;50.820;4.336;2024-01-11T08:32:29;36.43;;;18.20;;
23519;SDS011;11936;50.820;4.336;2024-01-11T08:34:56;37.00;;;17.83;;
23519;SDS011;11936;50.820;4.336;2024-01-11T08:37:22;40.63;;;17.90;;
23519;SDS011;11936;50.820;4.336;2024-01-11T08:39:48;36.38;;;19.10;;
23519;SDS011;11936;50.820;4.336;2024-01-11T08:42:15;36.75;;;18.38;;
23519;SDS011;11936;50.820;4.336;2024-01-11T08:44:41;37.22;;;18.48;;
23519;SDS011;11936;50.820;4.336;2024-01-11T08:47:07;43.28;;;18.80;;
23519;SDS011;11936;50.820;4.336;2024-01-11T08:49:36;41.80;;;20.02;;
23519;SDS011;11936;50.820;4.336;2024-01-11T15:41:01;27.67;;;15.15;;
23519;SDS011;11936;50.820;4.336;2024-01-11T15:43:28;26.60;;;14.38;;
23519;SDS011;11936;50.820;4.336;2024-01-11T15:45:53;27.10;;;14.20;;
23519;SDS011;11936;50.820;4.336;2024-01-11T15:48:19;25.75;;;14.68;;
23519;SDS011;11936;50.820;4.336;2024-01-11T15:50:44;28.77;;;15.93;;
23519;SDS011;11936;50.820;4.336;2024-01-11T15:53:10;31.60;;;16.00;;
23519;SDS011;11936;50.820;4.336;2024-01-11T15:55:36;28.05;;;15.45;;
23519;SDS011;11936;50.820;4.336;2024-01-11T15:58:02;30.25;;;15.77;;
23519;SDS011;11936;50.820;4.336;2024-01-11T16:00:28;31.90;;;15.50;;
23519;SDS011;11936;50.820;4.336;2024-01-11T16:02:58;27.33;;;14.98;;
23519;SDS011;11936;50.820;4.336;2024-01-11T16:05:36;26.83;;;14.68;;
23519;SDS011;11936;50.820;4.336;2024-01-11T16:08:02;24.77;;;13.70;;
23519;SDS011;11936;50.820;4.336;2024-01-11T16:10:28;23.63;;;13.20;;
23519;SDS011;11936;50.820;4.336;2024-01-11T16:12:54;25.25;;;14.48;;
23519;SDS011;11936;50.820;4.336;2024-01-11T16:15:20;25.05;;;13.60;;
23519;SDS011;11936;50.820;4.336;2024-01-11T16:17:45;17.67;;;10.55;;
23519;SDS011;11936;50.820;4.336;2024-01-11T16:20:11;16.25;;;9.75;;
23519;SDS011;11936;50.820;4.336;2024-01-11T16:22:37;16.20;;;8.88;;
23519;SDS011;11936;50.820;4.336;2024-01-11T16:25:03;20.42;;;9.00;;
23519;SDS011;11936;50.820;4.336;2024-01-11T16:27:28;16.70;;;8.30;;
23519;SDS011;11936;50.820;4.336;2024-01-11T16:29:54;17.13;;;9.38;;
23519;SDS011;11936;50.820;4.336;2024-01-11T16:32:20;16.05;;;9.25;;
23519;SDS011;11936;50.820;4.336;2024-01-11T17:13:31;14.60;;;7.28;;
23519;SDS011;11936;50.820;4.336;2024-01-11T17:15:56;15.45;;;8.20;;
23519;SDS011;11936;50.820;4.336;2024-01-11T17:18:22;16.23;;;7.70;;
23519;SDS011;11936;50.820;4.336;2024-01-11T17:20:48;12.13;;;7.60;;
23519;SDS011;11936;50.820;4.336;2024-01-11T17:23:13;11.30;;;6.80;;
23519;SDS011;11936;50.820;4.336;2024-01-11T17:25:39;13.57;;;7.13;;
23519;SDS011;11936;50.820;4.336;2024-01-11T17:28:05;11.70;;;6.97;;
23519;SDS011;11936;50.820;4.336;2024-01-11T17:30:31;13.50;;;7.68;;
23519;SDS011;11936;50.820;4.336;2024-01-11T17:32:56;14.90;;;7.70;;
23519;SDS011;11936;50.820;4.336;2024-01-11T17:35:22;18.08;;;8.45;;
23519;SDS011;11936;50.820;4.336;2024-01-11T17:37:48;14.65;;;8.32;;
23519;SDS011;11936;50.820;4.336;2024-01-11T17:40:14;13.68;;;8.45;;
23519;SDS011;11936;50.820;4.336;2024-01-11T17:42:39;18.00;;;9.18;;
23519;SDS011;11936;50.820;4.336;2024-01-11T17:45:05;15.75;;;7.97;;
23519;SDS011;11936;50.820;4.336;2024-01-11T17:47:31;17.10;;;9.05;;
23519;SDS011;11936;50.820;4.336;2024-01-11T17:49:56;15.30;;;8.55;;
23519;SDS011;11936;50.820;4.336;2024-01-11T17:52:22;12.15;;;7.63;;
23519;SDS011;11936;50.820;4.336;2024-01-11T17:54:48;17.45;;;8.18;;
23519;SDS011;11936;50.820;4.336;2024-01-11T17:57:13;21.25;;;8.73;;
23519;SDS011;11936;50.820;4.336;2024-01-11T17:59:39;14.82;;;8.60;;
23519;SDS011;11936;50.820;4.336;2024-01-11T18:02:10;18.23;;;8.93;;
23519;SDS011;11936;50.820;4.336;2024-01-11T18:04:35;16.77;;;9.68;;
23519;SDS011;11936;50.820;4.336;2024-01-11T18:07:01;14.98;;;8.55;;
23519;SDS011;11936;50.820;4.336;2024-01-11T18:09:27;18.83;;;9.70;;
23519;SDS011;11936;50.820;4.336;2024-01-11T18:11:52;17.38;;;9.23;;
23519;SDS011;11936;50.820;4.336;2024-01-11T18:14:18;22.25;;;10.68;;
23519;SDS011;11936;50.820;4.336;2024-01-11T18:16:43;16.48;;;10.00;;
23519;SDS011;11936;50.820;4.336;2024-01-11T18:19:09;17.35;;;10.00;;
23519;SDS011;11936;50.820;4.336;2024-01-11T18:24:04;17.15;;;9.82;;
23519;SDS011;11936;50.820;4.336;2024-01-11T18:26:30;18.55;;;10.00;;
23519;SDS011;11936;50.820;4.336;2024-01-11T18:28:56;17.63;;;9.80;;
23519;SDS011;11936;50.820;4.336;2024-01-11T18:31:21;17.88;;;8.77;;
23519;SDS011;11936;50.820;4.336;2024-01-11T18:33:47;18.88;;;10.10;;
23519;SDS011;11936;50.820;4.336;2024-01-11T18:36:16;16.75;;;10.07;;
23519;SDS011;11936;50.820;4.336;2024-01-11T18:38:44;19.30;;;10.95;;
23519;SDS011;11936;50.820;4.336;2024-01-11T18:41:10;19.73;;;9.52;;
23519;SDS011;11936;50.820;4.336;2024-01-11T18:43:36;19.45;;;10.55;;
23519;SDS011;11936;50.820;4.336;2024-01-11T18:46:01;22.45;;;10.27;;
23519;SDS011;11936;50.820;4.336;2024-01-11T18:48:27;17.83;;;10.60;;
23519;SDS011;11936;50.820;4.336;2024-01-11T18:50:53;18.50;;;9.90;;
23519;SDS011;11936;50.820;4.336;2024-01-11T18:53:19;19.33;;;10.07;;
23519;SDS011;11936;50.820;4.336;2024-01-11T18:55:46;19.27;;;9.88;;
23519;SDS011;11936;50.820;4.336;2024-01-11T18:58:12;16.13;;;9.23;;
23519;SDS011;11936;50.820;4.336;2024-01-11T19:00:39;17.65;;;9.40;;
23519;SDS011;11936;50.820;4.336;2024-01-11T19:03:05;17.00;;;9.27;;
23519;SDS011;11936;50.820;4.336;2024-01-11T19:05:31;15.85;;;9.52;;
23519;SDS011;11936;50.820;4.336;2024-01-11T19:07:56;20.00;;;9.68;;
23519;SDS011;11936;50.820;4.336;2024-01-11T19:10:24;18.75;;;9.23;;
23519;SDS011;11936;50.820;4.336;2024-01-11T19:12:49;18.55;;;10.15;;
23519;SDS011;11936;50.820;4.336;2024-01-11T19:15:15;18.25;;;10.23;;
23519;SDS011;11936;50.820;4.336;2024-01-11T19:17:41;18.20;;;9.93;;
23519;SDS011;11936;50.820;4.336;2024-01-11T19:20:07;21.20;;;9.90;;
23519;SDS011;11936;50.820;4.336;2024-01-11T19:22:33;17.00;;;9.57;;
23519;SDS011;11936;50.820;4.336;2024-01-11T19:24:59;17.80;;;9.40;;
23519;SDS011;11936;50.820;4.336;2024-01-11T19:27:25;16.00;;;9.40;;
23519;SDS011;11936;50.820;4.336;2024-01-11T19:29:50;20.73;;;10.00;;
23519;SDS011;11936;50.820;4.336;2024-01-11T19:32:16;20.67;;;10.88;;
23519;SDS011;11936;50.820;4.336;2024-01-11T19:34:42;19.90;;;10.07;;
23519;SDS011;11936;50.820;4.336;2024-01-11T19:37:07;21.60;;;11.88;;
23519;SDS011;11936;50.820;4.336;2024-01-11T19:39:33;18.98;;;11.25;;
23519;SDS011;11936;50.820;4.336;2024-01-11T19:41:59;21.33;;;11.23;;
23519;SDS011;11936;50.820;4.336;2024-01-11T19:44:24;23.65;;;12.20;;
23519;SDS011;11936;50.820;4.336;2024-01-11T19:46:52;21.25;;;12.27;;
23519;SDS011;11936;50.820;4.336;2024-01-11T19:49:18;25.83;;;14.35;;
23519;SDS011;11936;50.820;4.336;2024-01-11T19:51:44;24.67;;;14.70;;
23519;SDS011;11936;50.820;4.336;2024-01-11T19:54:09;21.73;;;12.93;;
23519;SDS011;11936;50.820;4.336;2024-01-11T19:56:35;22.38;;;12.82;;
23519;SDS011;11936;50.820;4.336;2024-01-11T19:59:01;20.80;;;12.18;;
23519;SDS011;11936;50.820;4.336;2024-01-11T20:01:28;23.77;;;13.40;;
23519;SDS011;11936;50.820;4.336;2024-01-11T20:03:53;25.98;;;13.18;;
23519;SDS011;11936;50.820;4.336;2024-01-11T20:06:21;21.85;;;12.27;;
23519;SDS011;11936;50.820;4.336;2024-01-11T20:08:48;26.52;;;12.98;;
23519;SDS011;11936;50.820;4.336;2024-01-11T20:11:13;22.10;;;13.32;;
23519;SDS011;11936;50.820;4.336;2024-01-11T20:13:39;21.83;;;12.70;;
23519;SDS011;11936;50.820;4.336;2024-01-11T20:16:04;22.67;;;13.00;;
23519;SDS011;11936;50.820;4.336;2024-01-11T20:18:33;19.70;;;12.40;;
23519;SDS011;11936;50.820;4.336;2024-01-11T20:20:59;26.63;;;13.02;;
23519;SDS011;11936;50.820;4.336;2024-01-11T20:23:25;25.48;;;12.75;;
23519;SDS011;11936;50.820;4.336;2024-01-11T20:25:50;22.35;;;13.52;;
23519;SDS011;11936;50.820;4.336;2024-01-11T20:28:16;23.27;;;13.63;;
23519;SDS011;11936;50.820;4.336;2024-01-11T20:30:43;21.02;;;11.95;;
23519;SDS011;11936;50.820;4.336;2024-01-11T20:33:10;22.60;;;12.20;;
23519;SDS011;11936;50.820;4.336;2024-01-11T20:35:37;26.95;;;12.50;;
23519;SDS011;11936;50.820;4.336;2024-01-11T20:38:06;22.33;;;13.18;;
23519;SDS011;11936;50.820;4.336;2024-01-11T20:40:31;22.70;;;11.88;;
23519;SDS011;11936;50.820;4.336;2024-01-11T20:43:00;22.83;;;12.70;;
23519;SDS011;11936;50.820;4.336;2024-01-11T20:45:31;20.17;;;12.18;;
23519;SDS011;11936;50.820;4.336;2024-01-11T20:47:57;26.50;;;12.23;;
23519;SDS011;11936;50.820;4.336;2024-01-11T20:50:22;26.42;;;12.48;;
23519;SDS011;11936;50.820;4.336;2024-01-11T20:52:48;20.55;;;12.30;;
23519;SDS011;11936;50.820;4.336;2024-01-11T23:48:35;33.75;;;18.77;;
23519;SDS011;11936;50.820;4.336;2024-01-11T23:51:02;29.58;;;17.60;;
23519;SDS011;11936;50.820;4.336;2024-01-11T23:53:28;32.50;;;18.60;;
23519;SDS011;11936;50.820;4.336;2024-01-11T23:55:53;31.77;;;17.40;;
23519;SDS011;11936;50.820;4.336;2024-01-11T23:58:19;34.95;;;17.88;;
